aviador You're here:

YTNK Decoded Metar

TENNANT CREEK in _UNIDENTIFIED
Report Time2018-05-28 04:00:00
UTC Time2018-05-28 04:50:51
Flight Rules vfr VFR
Wind310° at 05 kt
W.Decomp.*RWY 29: 4.8 kt HW 1.4 kt RCW
RWY 25: 2.8 kt HW 4.1 kt RCW
W.Rank310° ranks 22
Current wind is below 310° avg. (6.5)
Visibility9999 m
Phenomena:N/A
Clouds:Scattered 074 Hf
Expected CloudBase > 8,000 ft AGL from Temp-Dew spread
CeilingNone
Temp30°C (ISA +17)
Dew Point10°C (29% RH)
Heat Index28.7°C
AAT28.2°C
QNH1015 hPa
Density Alt3,333 ft
Elevation1,237 ft
Report Wrong Elevation
Raw Report
YTNK 280400Z AUTO 31005KT 9999 // SCT074 30/10 Q1015=

Extra information for YTNK:More info

Metar Taf Metar & Taf Last 4 Metars F.Rules Stats Wind Profile Meteogram Temp Stats Airport Information Weather charts Add Link Nearby VenuesMetar ALERT Operation Metar Decoded Social comments